Latest Weather Observations for Hobart

IDT60801

Issued at 5:35 am EST Sunday 21 September 2014 (issued every 30 minutes, with the page automatically refreshed every 10 minutes)

About weather observations | Map of weather stations | Latest weather observations for TAS | Other Formats
Station Details ID: 094029 Name: HOBART (ELLERSLIE ROAD) Lat: -42.89 Lon: 147.33 Height: 50.5 m
Data from the previous 72 hours. | See also: Recent months at Hobart
Date/Time
EST
Temp
°C
App
Temp
°C
Dew
Point
Rel
Hum
%
Delta-T
°C
Wind Press
QNH
hPa
Press
MSL
hPa
Rain
since 9 am
mm
Dir
 
Spd
km/h
Gust
km/h
Spd
kts
Gust
kts
21/05:30am 10.1 7.6 5.0 70 2.3 W 7 13 4 7 1024.6 1024.7 0.0
21/05:00am 9.9 7.4 4.8 70 2.3 WNW 7 13 4 7 1024.4 1024.5 0.0
21/04:30am 11.1 6.2 4.1 62 3.1 N 19 28 10 15 1024.3 1024.4 0.0
21/04:00am 11.2 6.1 4.0 61 3.2 N 20 28 11 15 1024.1 1024.2 0.0
21/03:30am 11.0 5.8 3.5 60 3.3 N 20 28 11 15 1024.2 1024.3 0.0
21/03:00am 11.0 6.0 3.5 60 3.3 NNW 19 28 10 15 1024.2 1024.3 0.0
21/02:30am 10.9 5.6 3.1 58 3.4 NNW 20 37 11 20 1024.6 1024.7 0.0
21/02:00am 10.4 5.7 3.2 61 3.1 NW 17 26 9 14 1025.0 1025.1 0.0
21/01:30am 9.7 6.9 3.2 64 2.8 WNW 7 13 4 7 1025.6 1025.7 0.0
21/01:00am 8.3 5.2 3.4 71 2.1 WSW 9 17 5 9 1025.5 1025.6 0.0
21/12:30am 9.0 5.8 3.1 66 2.5 W 9 17 5 9 1025.2 1025.3 0.0
21/12:00am 9.2 6.0 3.1 65 2.6 W 9 20 5 11 1025.0 1025.1 0.0
 
Date/Time
EST
Temp
°C
App
Temp
°C
Dew
Point
Rel
Hum
%
Delta-T
°C
Wind Press
QNH
hPa
Press
MSL
hPa
Rain
since 9 am
mm
Dir
 
Spd
km/h
Gust
km/h
Spd
kts
Gust
kts
20/11:30pm 8.5 5.4 3.6 71 2.1 NNW 9 15 5 8 1025.4 1025.5 0.0
20/11:00pm 8.9 7.0 3.0 66 2.5 SSE 2 6 1 3 1025.7 1025.8 0.0
20/10:30pm 8.7 6.2 3.6 70 2.2 WNW 6 9 3 5 1025.9 1026.0 0.0
20/10:00pm 9.4 6.7 3.6 67 2.5 ENE 7 11 4 6 1025.8 1025.9 0.0
20/09:30pm 10.3 7.6 3.9 64 2.8 WNW 7 13 4 7 1025.8 1025.9 0.0
20/09:00pm 10.8 6.5 3.2 59 3.3 SSE 15 20 8 11 1025.7 1025.8 0.0
20/08:30pm 11.0 7.5 3.7 60 3.2 NE 11 17 6 9 1025.2 1025.3 0.0
20/08:00pm 11.4 7.5 3.2 57 3.6 SSE 13 20 7 11 1025.2 1025.3 0.0
20/07:30pm 11.5 7.5 3.0 56 3.7 NNE 13 20 7 11 1025.0 1025.1 0.0
20/07:00pm 12.0 7.3 3.4 55 3.8 SSE 17 24 9 13 1024.7 1024.8 0.0
20/06:30pm 12.3 8.3 2.9 52 4.1 NNW 13 24 7 13 1024.3 1024.4 0.0
20/06:00pm 12.9 7.7 2.3 48 4.6 NNW 19 26 10 14 1023.5 1023.6 0.0
20/05:30pm 13.5 10.5 1.7 44 5.1 ENE 7 11 4 6 1023.7 1023.8 0.0
20/05:00pm 13.7 8.8 2.3 46 5.0 SW 17 28 9 15 1024.0 1024.1 0.0
20/04:30pm 14.6 8.4 2.1 43 5.5 WNW 24 35 13 19 1022.9 1023.0 0.0
20/04:00pm 14.9 11.7 3.1 45 5.3 SW 9 22 5 12 1023.2 1023.3 0.0
20/03:30pm 15.4 7.7 2.4 41 5.8 SW 32 52 17 28 1023.1 1023.2 0.0
20/03:18pm 15.3 8.0 2.5 42 5.7 SSW 30 48 16 26 1022.7 1022.8 0.0
20/03:00pm 16.4 10.2 2.4 39 6.3 SW 24 41 13 22 1022.5 1022.6 0.0
20/02:30pm 16.2 8.6 2.7 40 6.1 SSW 32 50 17 27 1022.4 1022.5 0.0
20/02:25pm 15.7 8.0 2.5 41 5.9 S 32 50 17 27 1022.2 1022.3 0.0
20/02:00pm 16.4 10.2 2.4 39 6.3 S 24 39 13 21 1022.1 1022.2 0.0
20/01:30pm 16.9 12.1 2.8 39 6.4 S 17 24 9 13 1022.2 1022.3 0.0
20/01:00pm 16.5 10.0 2.5 39 6.3 S 26 43 14 23 1022.1 1022.2 0.0
20/12:30pm 16.1 12.3 3.7 43 5.7 S 13 22 7 12 1022.5 1022.6 0.0
20/12:00pm 16.0 12.0 2.7 41 6.0 ESE 13 22 7 12 1022.8 1022.9 0.0
20/11:30am 15.5 11.5 2.8 42 5.7 ESE 13 17 7 9 1022.9 1023.0 0.0
20/11:00am 14.8 10.7 4.1 48 4.9 E 15 20 8 11 1023.0 1023.1 0.0
20/10:30am 14.4 10.5 3.3 47 5.0 E 13 19 7 10 1022.9 1023.0 0.0
20/10:00am 14.6 11.6 4.1 49 4.8 SE 9 13 5 7 1022.9 1023.0 0.0
20/09:30am 13.9 9.7 4.0 51 4.5 ESE 15 19 8 10 1022.9 1023.0 0.0
20/09:00am 13.4 9.5 3.6 51 4.4 ENE 13 19 7 10 1023.0 1023.1 0.4
20/08:30am 13.0 9.3 4.4 56 3.9 E 13 19 7 10 1022.7 1022.8 0.4
20/08:00am 12.4 9.0 4.2 57 3.7 E 11 17 6 9 1022.5 1022.6 0.2
20/07:30am 11.9 9.0 4.6 61 3.3 SSE 9 15 5 8 1022.2 1022.3 0.2
20/07:00am 9.6 6.4 5.2 74 2.0 NW 11 15 6 8 1022.1 1022.2 0.2
20/06:30am 9.7 6.7 4.3 69 2.4 NW 9 15 5 8 1022.0 1022.1 0.2
20/06:00am 9.1 6.3 5.1 76 1.8 WNW 9 17 5 9 1021.7 1021.8 0.2
20/05:30am 8.6 6.3 5.5 81 1.4 WNW 7 9 4 5 1021.4 1021.5 0.2
20/05:00am 9.4 7.2 5.4 76 1.8 NW 6 13 3 7 1021.1 1021.2 0.2
20/04:30am 9.7 7.0 5.5 75 1.9 W 9 13 5 7 1020.7 1020.8 0.2
20/04:00am 10.5 6.3 5.7 72 2.2 ESE 17 20 9 11 1020.4 1020.5 0.2
20/03:30am 10.6 8.1 4.6 66 2.7 SE 7 15 4 8 1020.2 1020.3 0.2
20/03:00am 10.9 7.2 4.4 64 2.9 N 13 19 7 10 1019.5 1019.6 0.2
20/02:30am 10.8 7.6 5.1 68 2.6 ENE 11 15 6 8 1019.3 1019.4 0.2
20/02:00am 11.2 7.6 4.8 64 2.9 ENE 13 20 7 11 1019.4 1019.5 0.2
20/01:30am 11.4 7.2 3.7 59 3.4 SW 15 22 8 12 1019.4 1019.5 0.2
20/01:00am 11.4 5.8 3.5 58 3.5 W 22 43 12 23 1019.2 1019.3 0.2
20/12:30am 11.4 6.9 4.0 60 3.3 SW 17 28 9 15 1019.3 1019.4 0.2
20/12:00am 11.4 5.5 3.7 59 3.4 WSW 24 43 13 23 1018.9 1019.0 0.2
 
Date/Time
EST
Temp
°C
App
Temp
°C
Dew
Point
Rel
Hum
%
Delta-T
°C
Wind Press
QNH
hPa
Press
MSL
hPa
Rain
since 9 am
mm
Dir
 
Spd
km/h
Gust
km/h
Spd
kts
Gust
kts
19/11:30pm 10.9 6.7 5.7 70 2.4 W 17 26 9 14 1019.2 1019.3 0.2
19/11:00pm 11.1 7.9 5.2 67 2.7 SW 11 20 6 11 1019.4 1019.5 0.2
19/10:30pm 11.3 8.0 4.7 64 3.0 SSW 11 19 6 10 1019.2 1019.3 0.2
19/10:00pm 10.9 8.6 5.0 67 2.7 S 6 15 3 8 1019.2 1019.3 0.2
19/09:30pm 11.0 8.2 5.3 68 2.6 SSE 9 13 5 7 1018.9 1019.0 0.2
19/09:00pm 10.9 8.2 5.5 69 2.5 NNE 9 13 5 7 1018.7 1018.8 0.2
19/08:30pm 10.7 8.6 6.0 73 2.2 NE 6 13 3 7 1018.6 1018.7 0.2
19/08:00pm 11.3 8.6 5.7 68 2.6 W 9 24 5 13 1018.6 1018.7 0.2
19/07:30pm 11.7 7.9 5.9 67 2.7 SSW 15 28 8 15 1018.2 1018.2 0.2
19/07:00pm 12.1 7.6 4.4 59 3.5 SW 17 35 9 19 1017.8 1017.8 0.2
19/06:30pm 12.0 9.4 4.2 59 3.5 S 7 15 4 8 1017.2 1017.2 0.2
19/06:00pm 12.1 8.7 3.8 57 3.7 WSW 11 20 6 11 1017.0 1017.0 0.2
19/05:30pm 12.4 6.8 3.4 54 4.0 SW 22 44 12 24 1017.0 1017.0 0.2
19/05:00pm 12.7 6.3 3.3 52 4.2 SW 26 46 14 25 1016.7 1016.7 0.2
19/04:56pm 12.9 6.1 3.0 51 4.4 SW 28 46 15 25 1016.6 1016.6 0.2
19/04:30pm 13.7 7.4 1.4 43 5.3 WSW 24 43 13 23 1016.2 1016.2 0.2
19/04:00pm 14.2 5.6 0.2 38 5.9 WSW 35 59 19 32 1015.7 1015.7 0.2
19/03:30pm 14.5 5.5 0.0 37 6.1 WSW 37 59 20 32 1015.3 1015.3 0.2
19/03:00pm 14.9 7.3 0.7 38 6.1 WSW 30 67 16 36 1015.0 1015.0 0.2
19/02:30pm 14.8 6.1 -0.2 36 6.3 SW 35 63 19 34 1014.8 1014.8 0.2
19/02:00pm 14.2 5.2 -0.1 37 6.0 WSW 37 67 20 36 1014.8 1014.8 0.2
19/01:30pm 14.6 5.2 -0.2 36 6.2 WSW 39 63 21 34 1014.8 1014.8 0.2
19/01:00pm 14.3 6.5 2.0 43 5.4 WSW 32 56 17 30 1015.1 1015.1 0.2
19/12:30pm 13.5 5.3 0.4 40 5.5 W 33 56 18 30 1015.4 1015.4 0.2
19/12:24pm 13.2 4.2 0.3 41 5.4 WSW 37 56 20 30 1015.4 1015.4 0.2
19/12:21pm 13.1 3.0 0.5 42 5.3 WSW 43 56 23 30 1015.2 1015.2 0.2
19/12:00pm 13.0 7.5 0.6 42 5.2 SW 19 35 10 19 1015.4 1015.4 0.2
19/11:47am 13.2 6.0 1.0 43 5.2 WSW 28 46 15 25 1015.7 1015.7 0.2
19/11:30am 13.1 8.2 1.8 46 4.9 WSW 17 37 9 20 1015.4 1015.4 0.2
19/11:03am 13.8 5.6 2.8 47 4.9 SW 35 54 19 29 1015.2 1015.2 0.2
19/11:00am 13.5 4.8 2.3 46 4.9 WSW 37 54 20 29 1015.3 1015.3 0.2
19/10:59am 13.5 4.5 2.3 46 4.9 SW 39 54 21 29 1015.3 1015.3 0.2
19/10:58am 13.7 6.8 2.3 46 5.0 W 28 54 15 29 1015.4 1015.4 0.2
19/10:30am 13.2 9.5 4.2 54 4.1 NW 13 24 7 13 1015.3 1015.3 0.2
19/10:00am 12.9 8.2 5.1 59 3.6 SW 19 32 10 17 1015.6 1015.6 0.2
19/09:40am 13.3 6.8 4.9 57 3.9 WSW 28 46 15 25 1015.5 1015.5 0.2
19/09:30am 13.5 7.7 4.6 55 4.1 WSW 24 43 13 23 1015.6 1015.6 0.0
19/09:00am 13.6 9.2 4.5 54 4.2 SW 17 28 9 15 1015.6 1015.6 0.6
19/08:30am 12.5 5.9 4.4 58 3.7 SW 28 43 15 23 1015.4 1015.4 0.6
19/08:00am 12.5 8.0 4.1 56 3.8 SW 17 37 9 20 1015.3 1015.3 0.6
19/07:30am 11.6 7.2 4.8 63 3.1 SW 17 28 9 15 1014.9 1014.9 0.6
19/07:00am 11.2 5.8 4.3 62 3.1 SW 22 39 12 21 1014.7 1014.7 0.6
19/06:30am 10.9 6.1 4.5 64 2.9 SW 19 33 10 18 1014.5 1014.5 0.6
19/06:00am 11.1 5.6 4.2 62 3.1 WSW 22 41 12 22 1014.1 1014.1 0.6
19/05:30am 10.8 5.0 4.6 65 2.8 WSW 24 37 13 20 1013.9 1013.9 0.6
19/05:00am 10.7 5.9 4.5 65 2.8 WSW 19 37 10 20 1013.6 1013.6 0.6
19/04:30am 10.6 6.1 4.1 64 2.9 WSW 17 33 9 18 1013.4 1013.4 0.6
19/04:00am 10.9 5.0 3.7 61 3.2 WSW 24 48 13 26 1013.0 1013.0 0.6
19/03:30am 10.8 3.3 3.5 60 3.2 SW 32 54 17 29 1013.0 1013.0 0.6
19/03:09am 10.7 4.1 4.0 63 3.0 SW 28 48 15 26 1012.8 1012.8 0.6
19/03:00am 10.8 6.3 4.1 63 3.0 SW 17 39 9 21 1013.0 1013.0 0.6
19/02:45am 11.0 4.4 4.1 62 3.1 SW 28 56 15 30 1012.7 1012.7 0.6
19/02:30am 11.1 5.5 3.7 60 3.3 SW 22 43 12 23 1012.9 1012.9 0.6
19/02:00am 10.8 5.6 3.5 60 3.2 SW 20 39 11 21 1012.9 1012.9 0.6
19/01:30am 10.5 7.7 3.4 61 3.1 NNE 7 13 4 7 1013.5 1013.5 0.6
19/01:00am 9.8 5.9 3.6 65 2.7 NE 13 26 7 14 1013.6 1013.6 0.6
19/12:30am 10.2 6.3 3.3 62 3.0 W 13 30 7 16 1013.8 1013.8 0.6
19/12:00am 10.5 6.8 2.3 57 3.5 WSW 11 24 6 13 1014.1 1014.1 0.6
 
Date/Time
EST
Temp
°C
App
Temp
°C
Dew
Point
Rel
Hum
%
Delta-T
°C
Wind Press
QNH
hPa
Press
MSL
hPa
Rain
since 9 am
mm
Dir
 
Spd
km/h
Gust
km/h
Spd
kts
Gust
kts
18/11:30pm 9.5 5.8 2.1 60 3.1 SW 11 26 6 14 1014.0 1014.0 0.6
18/11:00pm 8.9 4.8 2.2 63 2.8 NNW 13 20 7 11 1014.3 1014.3 0.6
18/10:30pm 9.2 4.6 1.8 60 3.1 NW 15 22 8 12 1015.0 1015.0 0.6
18/10:00pm 9.4 4.8 1.7 58 3.2 NW 15 22 8 12 1015.1 1015.1 0.6
18/09:30pm 9.0 5.6 1.8 60 3.0 NNW 9 24 5 13 1015.1 1015.1 0.6
18/09:00pm 9.7 5.9 1.5 56 3.4 SW 11 28 6 15 1015.6 1015.6 0.6
18/08:30pm 9.8 6.8 1.7 57 3.4 E 7 24 4 13 1015.9 1015.9 0.6
18/08:00pm 9.9 7.0 1.5 56 3.5 ESE 6 11 3 6 1015.7 1015.7 0.6
18/07:30pm 9.8 5.9 1.4 56 3.5 W 11 20 6 11 1015.8 1015.8 0.6
18/07:00pm 9.5 6.6 2.7 62 2.9 NE 7 13 4 7 1015.9 1015.9 0.6
18/06:30pm 9.2 6.1 3.4 67 2.5 NNE 9 17 5 9 1015.6 1015.6 0.6
18/06:00pm 9.0 5.9 3.7 69 2.3 WSW 9 20 5 11 1015.4 1015.4 0.6
18/05:30pm 9.5 5.7 4.0 68 2.4 SW 13 30 7 16 1015.2 1015.2 0.6
18/05:00pm 10.1 6.2 3.2 62 3.0 SW 13 26 7 14 1014.7 1014.7 0.6
18/04:30pm 10.8 5.6 3.3 60 3.3 SW 20 37 11 20 1014.3 1014.3 0.6
18/04:00pm 11.0 5.8 2.4 55 3.7 SW 19 33 10 18 1014.1 1014.1 0.6
18/03:30pm 10.9 5.6 2.8 57 3.5 SW 20 41 11 22 1013.9 1013.9 0.6
18/03:00pm 10.9 6.3 3.9 62 3.1 SW 17 41 9 22 1014.2 1014.2 0.6
18/02:30pm 9.5 5.9 5.1 74 2.0 SW 13 22 7 12 1014.5 1014.5 0.6
18/02:00pm 9.1 4.2 4.9 75 1.9 SSW 20 37 11 20 1014.4 1014.4 0.4
18/01:30pm 11.0 7.2 4.1 62 3.1 SSW 13 20 7 11 1013.8 1013.8 0.2
18/01:00pm 12.0 5.4 -0.6 41 5.1 WSW 24 39 13 21 1013.7 1013.7 0.2
18/12:42pm 12.3 4.0 -1.9 37 5.6 W 32 54 17 29 1013.6 1013.6 0.2
18/12:30pm 12.3 6.3 -1.5 38 5.5 SW 20 33 11 18 1013.9 1013.9 0.2
18/12:00pm 13.2 7.4 -0.4 39 5.6 SW 20 30 11 16 1014.1 1014.1 0.2
18/11:30am 12.1 6.0 0.6 45 4.8 SW 22 39 12 21 1014.8 1014.8 0.2
18/11:23am 11.0 3.3 0.2 47 4.4 SW 30 48 16 26 1015.0 1015.0 0.2
18/11:16am 11.8 3.6 0.1 44 4.8 SW 33 48 18 26 1014.9 1014.9 0.2
18/11:00am 12.6 6.6 1.0 45 4.9 SSW 22 30 12 16 1015.1 1015.1 0.0
18/10:33am 11.5 4.1 -0.7 43 4.9 WSW 28 48 15 26 1015.2 1015.2 0.0
18/10:30am 11.5 4.5 -0.3 44 4.8 WSW 26 48 14 26 1015.2 1015.2 0.0
18/10:22am 11.5 3.1 -0.7 43 4.9 WSW 33 52 18 28 1015.3 1015.3 0.0
18/10:16am 11.4 1.2 -0.1 45 4.7 SW 43 52 23 28 1015.3 1015.3 0.0
18/10:00am 11.5 5.8 0.7 47 4.5 WSW 20 30 11 16 1015.5 1015.5 0.0
18/09:30am 10.4 4.3 0.7 51 4.0 W 22 33 12 18 1015.7 1015.7 0.0
18/09:00am 9.9 4.3 1.5 56 3.5 SW 20 32 11 17 1015.6 1015.6 1.2
18/08:30am 9.1 5.9 3.3 67 2.5 SSE 9 13 5 7 1015.5 1015.5 1.2
18/08:00am 7.5 2.9 3.5 76 1.7 SSW 17 24 9 13 1015.6 1015.6 1.2
18/07:30am 7.7 2.3 2.7 70 2.1 SSW 20 30 11 16 1015.2 1015.2 1.2
18/07:00am 7.8 4.4 2.0 67 2.4 SSW 9 15 5 8 1014.6 1014.6 1.2
18/06:30am 7.5 2.9 1.3 65 2.5 SW 15 26 8 14 1014.1 1014.1 1.2
18/06:00am 7.0 3.9 1.6 68 2.2 S 7 13 4 7 1013.5 1013.5 1.2

Other Formats:

Comma delimited format used in spreadsheet applications
http://www.bom.gov.au/fwo/IDT60801/IDT60801.94970.axf

JavaScript Object Notation format (JSON) in row-major order
http://www.bom.gov.au/fwo/IDT60801/IDT60801.94970.json